Time;durP1;ratioP1;P1;durP2;ratioP2;P2;SDS_P1;SDS_P2;PMS_P1;PMS_P2;Temp;Humidity;BMP_temperature;BMP_pressure;BME280_temperature;BME280_humidity;BME280_pressure;Samples;Min_cycle;Max_cycle;Signal;HPM_P1;HPM_P2
2021/08/15 09:26:36;;;;;;;5.95;2.40;;;;;;;18.45;83.55;100212.34;2587028;47;20799;-76
2021/08/15 09:29:16;;;;;;;6.78;2.45;;;;;;;18.88;82.61;100203.75;2585144;55;20121;-76
2021/08/15 09:31:46;;;;;;;6.72;2.65;;;;;;;19.37;79.20;100198.91;2576437;55;20547;-72
2021/08/15 09:34:25;;;;;;;6.75;2.30;;;;;;;19.34;78.97;100202.81;2581335;55;20117;-71
2021/08/15 09:36:54;;;;;;;6.80;1.95;;;;;;;19.33;76.22;100199.25;2581791;55;20121;-72
2021/08/15 09:39:32;;;;;;;7.45;2.58;;;;;;;19.82;76.77;100188.88;2581029;55;20121;-72
2021/08/15 09:42:02;;;;;;;5.12;2.12;;;;;;;20.33;74.66;100189.87;2575869;55;20121;-72
2021/08/15 09:44:31;;;;;;;4.70;2.17;;;;;;;20.82;70.75;100195.56;2581199;55;20140;-72
2021/08/15 09:47:07;;;;;;;4.55;1.87;;;;;;;21.15;67.49;100205.84;2580454;55;20134;-70
2021/08/15 09:49:41;;;;;;;7.70;2.42;;;;;;;21.33;64.95;100185.47;2579984;55;20870;-70
2021/08/15 09:52:11;;;;;;;5.53;1.80;;;;;;;21.21;63.98;100194.19;2575496;55;20125;-70
2021/08/15 09:54:40;;;;;;;4.30;1.75;;;;;;;21.18;62.17;100185.59;2580851;55;20531;-70
2021/08/15 09:57:10;;;;;;;4.35;2.15;;;;;;;21.50;67.45;100189.56;2578493;55;20135;-70
2021/08/15 09:59:39;;;;;;;5.80;1.80;;;;;;;21.42;62.11;100200.56;2574240;55;21380;-71
2021/08/15 10:02:07;;;;;;;5.30;1.95;;;;;;;21.05;63.28;100191.78;2581778;55;20154;-71
2021/08/15 10:04:38;;;;;;;2.80;2.00;;;;;;;20.68;65.09;100192.72;2584172;55;20544;-71
2021/08/15 10:07:06;;;;;;;6.57;2.10;;;;;;;20.68;64.57;100206.28;2579633;55;20558;-71
2021/08/15 10:09:35;;;;;;;5.87;1.80;;;;;;;20.89;62.13;100201.88;2584502;55;20120;-71
2021/08/15 10:12:03;;;;;;;5.05;1.65;;;;;;;21.20;61.07;100202.53;2585184;55;20109;-71
2021/08/15 10:14:32;;;;;;;3.42;1.67;;;;;;;21.34;58.85;100192.56;2585086;55;20128;-71
2021/08/15 10:17:01;;;;;;;4.35;1.80;;;;;;;21.59;59.54;100189.37;2584947;55;20174;-71
2021/08/15 10:19:37;;;;;;;5.93;1.48;;;;;;;21.86;58.89;100192.25;2581694;55;20112;-71
2021/08/15 10:22:06;;;;;;;5.70;2.20;;;;;;;21.96;56.42;100203.56;2579858;55;20641;-71
2021/08/15 10:24:48;;;;;;;6.53;1.75;;;;;;;22.23;56.81;100190.91;2579439;55;20953;-72
2021/08/15 10:27:44;;;;;;;4.15;1.87;;;;;;;22.38;58.55;100193.44;2579784;55;20142;-71
2021/08/15 10:30:46;;;;;;;10.05;2.17;;;;;;;22.56;59.14;100199.34;2577094;55;20134;-71
2021/08/15 10:33:18;;;;;;;4.78;1.85;;;;;;;22.76;56.36;100200.19;2579884;55;20114;-71
2021/08/15 10:36:25;;;;;;;3.28;1.40;;;;;;;23.13;53.18;100201.62;2579602;55;20121;-71
2021/08/15 10:38:56;;;;;;;3.08;1.77;;;;;;;22.91;56.14;100191.81;2571123;55;20118;-68
2021/08/15 10:41:55;;;;;;;5.85;1.58;;;;;;;22.79;55.28;100190.78;2576263;55;20151;-72
2021/08/15 10:44:23;;;;;;;6.95;2.25;;;;;;;22.04;56.93;100191.69;2570343;55;20631;-71
2021/08/15 10:47:16;;;;;;;6.35;1.87;;;;;;;21.74;60.19;100203.66;2576239;55;20147;-72
2021/08/15 10:49:52;;;;;;;7.45;1.85;;;;;;;21.39;57.81;100200.97;2576322;55;20116;-72
2021/08/15 10:52:39;;;;;;;3.95;1.87;;;;;;;22.05;58.46;100202.34;2576320;55;20503;-72
2021/08/15 10:55:12;;;;;;;6.47;1.90;;;;;;;22.45;59.79;100203.50;2575701;55;20131;-71
2021/08/15 10:57:43;;;;;;;4.87;1.45;;;;;;;22.67;55.10;100195.19;2576311;55;20123;-71
2021/08/15 11:00:43;;;;;;;5.28;1.75;;;;;;;22.96;53.16;100193.91;2576034;55;20121;-72
2021/08/15 11:03:50;;;;;;;3.40;1.60;;;;;;;23.05;56.06;100189.09;2578026;55;20134;-71
2021/08/15 11:06:45;;;;;;;2.62;1.60;;;;;;;23.23;55.23;100199.31;2576192;55;20144;-72
2021/08/15 11:09:13;;;;;;;3.87;1.80;;;;;;;22.78;51.14;100202.72;2573810;55;20523;-72
2021/08/15 11:12:17;;;;;;;3.55;1.73;;;;;;;22.50;52.92;100190.97;2576435;55;20632;-72
2021/08/15 11:15:06;;;;;;;2.95;1.92;;;;;;;22.44;57.52;100180.06;2576125;55;20127;-72
2021/08/15 11:17:35;;;;;;;5.18;2.20;;;;;;;22.24;55.36;100198.00;2581397;55;20129;-72
2021/08/15 11:20:34;;;;;;;4.90;1.95;;;;;;;22.43;53.77;100194.69;2581163;55;20647;-71
2021/08/15 11:23:13;;;;;;;4.80;1.85;;;;;;;22.59;53.04;100194.31;2580366;55;20125;-71
2021/08/15 11:25:41;;;;;;;4.53;2.40;;;;;;;22.65;55.60;100185.34;2575941;55;20635;-71
2021/08/15 11:28:09;;;;;;;4.82;2.20;;;;;;;22.54;52.40;100196.00;2575897;55;20135;-72
2021/08/15 11:30:37;;;;;;;3.75;2.95;;;;;;;22.41;51.87;100191.34;2575929;55;20635;-70
2021/08/15 11:33:07;;;;;;;5.28;2.47;;;;;;;22.38;52.70;100176.28;2576053;55;20125;-70
2021/08/15 11:35:43;;;;;;;5.97;2.00;;;;;;;22.52;52.50;100179.87;2575982;55;20634;-71
2021/08/15 11:38:12;;;;;;;5.07;2.30;;;;;;;22.76;51.78;100166.75;2576307;55;20135;-71
2021/08/15 11:40:46;;;;;;;2.83;1.65;;;;;;;22.84;52.28;100180.09;2576269;55;20122;-70
2021/08/15 11:43:17;;;;;;;20.42;2.45;;;;;;;23.00;52.11;100194.31;2576078;55;20132;-71
2021/08/15 11:45:46;;;;;;;5.93;1.70;;;;;;;23.09;50.12;100193.06;2576021;55;20121;-71
2021/08/15 11:48:16;;;;;;;5.20;2.30;;;;;;;22.96;50.40;100187.66;2575701;55;20632;-71
2021/08/15 11:50:48;;;;;;;4.15;3.45;;;;;;;22.71;51.24;100189.13;2576065;55;20256;-70
2021/08/15 11:53:25;;;;;;;8.48;4.95;;;;;;;22.35;52.18;100180.28;2576219;55;20134;-71
2021/08/15 11:55:54;;;;;;;266.88;180.52;;;;;;;22.16;53.38;100189.22;2575848;55;20139;-70
2021/08/15 11:58:23;;;;;;;8.95;6.22;;;;;;;21.97;51.90;100172.66;2575852;55;20133;-70
2021/08/15 12:00:51;;;;;;;3.83;1.92;;;;;;;21.76;52.38;100179.91;2575809;55;20599;-69
2021/08/15 12:03:21;;;;;;;6.03;4.22;;;;;;;21.63;52.78;100175.22;2575917;55;20197;-71
2021/08/15 12:05:52;;;;;;;5.93;3.83;;;;;;;21.38;54.00;100200.13;2575816;55;20139;-71
2021/08/15 12:08:32;;;;;;;7.75;2.22;;;;;;;21.16;53.98;100184.97;2575872;55;20112;-71
2021/08/15 12:11:21;;;;;;;4.28;2.12;;;;;;;20.94;54.16;100180.44;2576487;55;20143;-71
2021/08/15 12:13:56;;;;;;;6.57;2.42;;;;;;;21.00;55.16;100211.38;2570840;55;20129;-74
2021/08/15 12:16:25;;;;;;;8.85;4.28;;;;;;;20.85;54.68;100181.62;2576055;55;20113;-74
2021/08/15 12:18:55;;;;;;;21.48;17.70;;;;;;;20.81;54.80;100175.72;2575764;55;20123;-75
2021/08/15 12:21:28;;;;;;;15.32;10.55;;;;;;;20.98;55.45;100183.59;2576068;55;20135;-74
2021/08/15 12:24:10;;;;;;;12.68;8.40;;;;;;;21.56;56.63;100174.34;2576124;55;20117;-74
2021/08/15 12:26:40;;;;;;;6.47;3.22;;;;;;;21.93;54.51;100174.94;2576034;55;20128;-74
2021/08/15 12:29:10;;;;;;;6.18;4.55;;;;;;;22.12;52.68;100177.06;2575809;55;20121;-74
2021/08/15 12:31:38;;;;;;;5.05;1.60;;;;;;;21.99;52.65;100172.44;2575792;55;20121;-74
2021/08/15 12:34:09;;;;;;;4.20;1.55;;;;;;;21.87;52.24;100180.34;2576019;55;20133;-74
2021/08/15 12:36:47;;;;;;;30.10;21.27;;;;;;;21.78;53.50;100169.66;2576509;55;20109;-73
2021/08/15 12:39:16;;;;;;;13.40;6.62;;;;;;;21.66;51.45;100155.81;2575828;55;20124;-74
2021/08/15 12:41:50;;;;;;;11.98;10.52;;;;;;;21.68;53.51;100183.59;2575826;55;20143;-74
2021/08/15 12:44:20;;;;;;;6.03;2.62;;;;;;;21.58;52.49;100174.16;2575795;55;20128;-74
2021/08/15 12:47:00;;;;;;;5.47;2.00;;;;;;;21.49;53.96;100177.03;2570821;55;20105;-75
2021/08/15 12:49:33;;;;;;;4.10;1.70;;;;;;;21.23;55.57;100169.59;2576753;55;20149;-75
2021/08/15 12:52:16;;;;;;;17.37;12.20;;;;;;;21.22;55.41;100166.00;2577858;55;20125;-75
2021/08/15 12:55:19;;;;;;;10.07;5.22;;;;;;;21.50;55.24;100161.59;2577130;55;20670;-75
2021/08/15 12:57:51;;;;;;;12.32;7.62;;;;;;;21.52;53.89;100163.03;2551836;56;20130;-76
2021/08/15 13:00:19;;;;;;;30.42;22.37;;;;;;;21.44;53.37;100170.53;2548466;56;20127;-75
2021/08/15 13:02:48;;;;;;;8.52;2.58;;;;;;;21.29;53.73;100162.53;2562129;55;20131;-75
2021/08/15 13:05:17;;;;;;;14.68;9.32;;;;;;;21.16;55.52;100157.84;2575947;55;20106;-75
2021/08/15 13:07:46;;;;;;;6.75;2.35;;;;;;;20.99;56.24;100155.44;2575970;55;20650;-75
2021/08/15 13:10:15;;;;;;;20.55;11.15;;;;;;;20.83;56.38;100170.13;2576034;55;20139;-75
2021/08/15 13:12:43;;;;;;;19.42;15.35;;;;;;;20.72;56.61;100157.94;2575883;55;20642;-73
2021/08/15 13:15:12;;;;;;;70.82;47.90;;;;;;;20.60;56.74;100164.94;2575731;55;20139;-74
2021/08/15 13:17:40;;;;;;;10.02;5.80;;;;;;;20.55;56.66;100154.69;2570636;55;20630;-75
2021/08/15 13:20:10;;;;;;;5.05;3.35;;;;;;;20.56;57.90;100156.34;2570230;55;20775;-73
2021/08/15 13:22:38;;;;;;;7.65;2.70;;;;;;;20.55;58.75;100157.38;2575806;55;20178;-74
2021/08/15 13:25:09;;;;;;;11.25;3.87;;;;;;;20.51;57.29;100150.66;2575826;55;20126;-74
2021/08/15 13:27:38;;;;;;;6.93;3.22;;;;;;;20.48;56.26;100145.66;2575804;55;20524;-74
2021/08/15 13:30:07;;;;;;;10.38;3.17;;;;;;;20.69;55.60;100150.19;2575561;55;20500;-75
2021/08/15 13:32:35;;;;;;;6.00;2.60;;;;;;;20.95;54.39;100141.47;2575420;55;20116;-74
2021/08/15 13:35:04;;;;;;;35.15;21.23;;;;;;;21.23;55.03;100140.56;2575812;55;20116;-75
2021/08/15 13:37:31;;;;;;;21.12;11.55;;;;;;;21.30;55.87;100137.91;2575295;55;20113;-75
2021/08/15 13:40:05;;;;;;;18.87;13.35;;;;;;;21.38;54.60;100140.44;2575869;55;20118;-73
2021/08/15 13:42:36;;;;;;;9.38;4.62;;;;;;;21.23;55.37;100143.28;2575844;55;20137;-73
2021/08/15 13:45:09;;;;;;;7.40;4.65;;;;;;;21.07;55.90;100136.31;2570304;55;20133;-73
2021/08/15 13:47:36;;;;;;;7.15;6.15;;;;;;;21.07;55.99;100133.59;2575603;55;20135;-74
2021/08/15 13:50:06;;;;;;;5.50;3.42;;;;;;;21.21;56.37;100139.13;2575591;55;20118;-73
2021/08/15 13:52:34;;;;;;;8.68;5.10;;;;;;;21.30;56.94;100142.50;2575805;55;20624;-73
2021/08/15 13:55:02;;;;;;;8.18;3.03;;;;;;;21.23;55.82;100143.28;2577899;55;20117;-73
2021/08/15 13:57:30;;;;;;;5.47;1.73;;;;;;;21.03;55.19;100145.03;2576957;55;20728;-74
2021/08/15 13:59:59;;;;;;;4.07;2.45;;;;;;;20.80;56.56;100152.37;2579425;55;20121;-73
2021/08/15 14:02:28;;;;;;;22.58;3.37;;;;;;;20.66;57.35;100158.72;2580449;55;20143;-73
2021/08/15 14:04:56;;;;;;;9.63;2.28;;;;;;;20.60;58.70;100149.50;2581369;55;20174;-73
2021/08/15 14:07:24;;;;;;;3.85;1.85;;;;;;;20.49;58.54;100153.56;2580928;55;20125;-73
2021/08/15 14:09:51;;;;;;;24.12;8.57;;;;;;;20.46;60.28;100159.37;2579386;55;20536;-72
2021/08/15 14:12:19;;;;;;;13.38;4.37;;;;;;;20.48;60.59;100146.47;2576067;55;20125;-72
2021/08/15 14:14:47;;;;;;;3.83;1.80;;;;;;;20.42;61.52;100148.09;2576273;55;20507;-72
2021/08/15 14:17:17;;;;;;;9.55;3.00;;;;;;;20.33;62.99;100146.53;2577556;55;20155;-73
2021/08/15 14:19:45;;;;;;;6.43;1.67;;;;;;;20.31;62.80;100156.72;2576826;55;20167;-72
2021/08/15 14:22:12;;;;;;;3.45;1.55;;;;;;;20.27;63.06;100150.03;2578228;55;20132;-73
2021/08/15 14:24:41;;;;;;;7.10;2.00;;;;;;;20.23;63.63;100138.75;2578135;55;20138;-73
2021/08/15 14:27:09;;;;;;;4.60;1.75;;;;;;;20.18;64.08;100140.38;2577775;55;20121;-73
2021/08/15 14:29:37;;;;;;;22.62;7.45;;;;;;;20.06;63.18;100132.75;2581481;55;20121;-74
2021/08/15 14:32:06;;;;;;;13.15;2.95;;;;;;;19.89;64.07;100127.53;2576180;55;20113;-73
2021/08/15 14:34:35;;;;;;;52.47;11.98;;;;;;;19.76;66.33;100127.41;2581499;55;20117;-73
2021/08/15 14:37:04;;;;;;;15.05;4.03;;;;;;;19.67;67.47;100123.13;2581552;55;20128;-73
2021/08/15 14:39:31;;;;;;;14.95;4.03;;;;;;;19.63;67.64;100128.06;2581583;55;20135;-73
2021/08/15 14:41:59;;;;;;;4.30;2.40;;;;;;;19.56;68.01;100114.47;2576380;55;20616;-73
2021/08/15 14:44:27;;;;;;;5.80;2.92;;;;;;;19.50;68.70;100114.41;2581353;55;20147;-72
2021/08/15 14:46:59;;;;;;;7.40;2.45;;;;;;;19.46;69.26;100119.34;2576307;55;20787;-72
2021/08/15 14:49:27;;;;;;;;;;;;;;;19.69;68.88;100113.81;2581689;55;20144;-72
2021/08/15 14:51:56;;;;;;;7.32;2.30;;;;;;;19.45;70.62;100114.97;2581542;55;20401;-72
2021/08/15 14:54:26;;;;;;;18.30;5.40;;;;;;;19.37;71.03;100117.78;2581454;55;20146;-72
2021/08/15 14:56:54;;;;;;;25.62;7.05;;;;;;;19.26;71.85;100111.81;2581159;55;20133;-72
2021/08/15 14:59:22;;;;;;;18.92;5.70;;;;;;;19.20;72.26;100115.25;2581293;55;20132;-72
2021/08/15 15:01:50;;;;;;;9.45;4.30;;;;;;;19.09;73.97;100107.63;2581509;55;20124;-73
2021/08/15 15:04:18;;;;;;;11.50;3.30;;;;;;;19.08;72.28;100114.06;2581525;55;20120;-73
2021/08/15 15:06:46;;;;;;;27.48;7.65;;;;;;;18.98;74.44;100120.53;2581442;55;20118;-74
2021/08/15 15:09:15;;;;;;;12.10;4.30;;;;;;;18.95;73.21;100120.91;2581364;55;20113;-74
2021/08/15 15:11:43;;;;;;;7.47;2.40;;;;;;;18.90;74.50;100109.81;2581432;55;20108;-73
2021/08/15 15:14:11;;;;;;;11.55;3.92;;;;;;;18.91;73.80;100119.59;2581385;55;20538;-74
2021/08/15 15:16:39;;;;;;;13.90;4.00;;;;;;;18.90;75.53;100113.38;2581480;55;20527;-73
2021/08/15 15:19:07;;;;;;;12.73;3.37;;;;;;;18.84;75.49;100107.84;2581046;55;20124;-74
2021/08/15 15:21:35;;;;;;;10.73;3.45;;;;;;;18.86;73.33;100122.03;2581430;55;20125;-75
2021/08/15 15:24:03;;;;;;;4.43;2.10;;;;;;;18.87;72.32;100118.28;2581441;55;20113;-74
2021/08/15 15:26:33;;;;;;;6.05;2.60;;;;;;;18.88;72.58;100109.16;2580121;55;20113;-74
2021/08/15 15:29:01;;;;;;;88.40;22.23;;;;;;;18.83;73.45;100107.00;2578394;55;20110;-74
2021/08/15 15:31:29;;;;;;;9.95;3.45;;;;;;;18.84;72.74;100110.53;2577148;55;20125;-74
2021/08/15 15:33:57;;;;;;;10.43;3.10;;;;;;;18.79;73.65;100105.72;2576158;55;20129;-73
2021/08/15 15:36:25;;;;;;;7.20;2.78;;;;;;;18.82;71.58;100104.47;2576221;55;20122;-73
2021/08/15 15:38:54;;;;;;;4.22;1.92;;;;;;;18.72;71.97;100094.78;2580137;55;20113;-74
2021/08/15 15:41:22;;;;;;;8.20;2.60;;;;;;;18.70;72.60;100104.94;2581674;55;20124;-74
2021/08/15 15:43:51;;;;;;;5.72;2.20;;;;;;;18.68;73.54;100098.88;2581168;55;20109;-74
2021/08/15 15:46:19;;;;;;;5.47;2.30;;;;;;;18.70;72.01;100107.63;2581398;55;20125;-74
2021/08/15 15:48:48;;;;;;;9.35;4.90;;;;;;;18.73;72.20;100103.75;2581261;55;20121;-74
2021/08/15 15:51:15;;;;;;;4.32;2.30;;;;;;;18.77;71.86;100089.69;2581120;55;20121;-74
2021/08/15 15:53:43;;;;;;;6.80;4.75;;;;;;;18.80;73.10;100101.13;2579369;55;20579;-74
2021/08/15 15:56:12;;;;;;;8.00;2.08;;;;;;;18.85;71.25;100088.75;2575882;55;20140;-74
2021/08/15 15:58:39;;;;;;;6.45;2.28;;;;;;;18.86;71.74;100100.41;2576099;55;20147;-75
2021/08/15 16:01:08;;;;;;;3.10;1.65;;;;;;;18.82;71.58;100094.53;2576069;55;20131;-74
2021/08/15 16:03:36;;;;;;;6.65;2.12;;;;;;;18.84;72.18;100087.06;2575927;55;20136;-75
2021/08/15 16:06:04;;;;;;;13.77;2.28;;;;;;;18.86;71.33;100097.69;2576016;55;20144;-74
2021/08/15 16:08:32;;;;;;;11.20;2.60;;;;;;;18.81;68.87;100083.91;2575790;55;20124;-74
2021/08/15 16:11:00;;;;;;;5.53;2.42;;;;;;;18.70;70.10;100091.44;2571131;55;20132;-74
2021/08/15 16:13:31;;;;;;;10.20;2.92;;;;;;;18.58;70.48;100093.72;2576172;55;20139;-74
2021/08/15 16:15:59;;;;;;;4.22;2.00;;;;;;;18.48;71.54;100094.00;2575981;55;20128;-74
2021/08/15 16:18:28;;;;;;;6.15;2.42;;;;;;;18.40;72.79;100098.66;2570757;55;20137;-75
2021/08/15 16:20:56;;;;;;;7.97;2.42;;;;;;;18.31;72.55;100109.53;2575806;55;20606;-75
2021/08/15 16:23:24;;;;;;;5.85;2.30;;;;;;;18.20;73.62;100113.47;2575981;55;20637;-74
2021/08/15 16:25:52;;;;;;;6.53;2.62;;;;;;;18.14;75.12;100125.00;2575863;55;20125;-74
2021/08/15 16:28:19;;;;;;;5.25;2.87;;;;;;;18.08;75.68;100115.75;2575892;55;20532;-74
2021/08/15 16:30:47;;;;;;;5.15;2.60;;;;;;;17.99;76.68;100118.66;2575891;55;20125;-74
2021/08/15 16:33:15;;;;;;;7.68;3.05;;;;;;;17.92;77.09;100123.94;2575672;55;20101;-74
2021/08/15 16:35:44;;;;;;;6.62;2.67;;;;;;;17.85;77.27;100121.13;2575710;55;20101;-75
2021/08/15 16:38:12;;;;;;;6.85;2.10;;;;;;;17.82;76.90;100126.84;2575996;55;20524;-74
2021/08/15 16:40:40;;;;;;;9.05;2.47;;;;;;;17.72;78.99;100132.47;2576287;55;20128;-75
2021/08/15 16:43:08;;;;;;;5.65;2.40;;;;;;;17.69;79.53;100138.25;2576005;55;20637;-74
2021/08/15 16:45:37;;;;;;;4.30;2.58;;;;;;;17.70;79.76;100145.31;2575977;55;20139;-75
2021/08/15 16:48:06;;;;;;;14.57;3.28;;;;;;;17.69;79.46;100153.56;2578594;55;20131;-75
2021/08/15 16:50:33;;;;;;;11.70;2.62;;;;;;;17.68;78.21;100152.72;2577900;55;20112;-75
2021/08/15 16:53:02;;;;;;;8.35;2.12;;;;;;;17.55;75.91;100153.31;2581255;55;20116;-75
2021/08/15 16:55:31;;;;;;;2.90;1.40;;;;;;;17.43;74.86;100160.06;2581009;55;20120;-74
2021/08/15 16:57:58;;;;;;;8.02;1.87;;;;;;;17.31;76.09;100146.97;2581121;55;20146;-74
2021/08/15 17:00:26;;;;;;;4.18;2.25;;;;;;;17.23;76.16;100150.53;2580976;55;20127;-74
2021/08/15 17:02:54;;;;;;;14.73;2.22;;;;;;;17.18;74.21;100144.00;2581093;55;20112;-74
2021/08/15 17:05:22;;;;;;;4.78;1.55;;;;;;;17.06;76.15;100138.97;2580996;55;20134;-75
2021/08/15 17:07:50;;;;;;;5.78;1.40;;;;;;;16.93;78.29;100146.69;2580873;55;20188;-75
2021/08/15 17:10:19;;;;;;;11.65;1.92;;;;;;;16.79;81.21;100149.09;2581244;55;20691;-75
2021/08/15 17:12:47;;;;;;;10.00;1.70;;;;;;;16.65;80.60;100147.09;2580413;55;20689;-75
2021/08/15 17:15:14;;;;;;;12.23;1.98;;;;;;;16.55;81.43;100150.78;2580792;55;20666;-75
2021/08/15 17:17:43;;;;;;;6.82;1.60;;;;;;;16.52;81.99;100169.97;2581062;55;20637;-75
2021/08/15 17:20:11;;;;;;;6.30;2.45;;;;;;;16.45;81.85;100152.81;2580644;55;20492;-76
2021/08/15 17:22:39;;;;;;;5.10;1.98;;;;;;;16.52;79.29;100169.97;2580964;55;20723;-74
2021/08/15 17:25:09;;;;;;;4.55;1.85;;;;;;;16.53;78.53;100157.34;2579353;55;20159;-74
2021/08/15 17:27:41;;;;;;;15.57;1.95;;;;;;;16.49;80.11;100159.53;2576862;55;20689;-74
2021/08/15 17:30:10;;;;;;;5.05;3.10;;;;;;;16.45;80.46;100151.97;2576970;55;20524;-75
2021/08/15 17:32:38;;;;;;;18.98;2.75;;;;;;;16.37;82.01;100158.19;2577869;55;20120;-73
2021/08/15 17:35:08;;;;;;;10.68;1.60;;;;;;;16.34;81.12;100156.66;2576600;55;20515;-74
2021/08/15 17:37:41;;;;;;;12.20;1.67;;;;;;;16.30;82.71;100157.16;2577308;55;20163;-77
2021/08/15 17:40:11;;;;;;;4.85;1.83;;;;;;;16.26;82.83;100153.97;2576679;55;20687;-79
2021/08/15 17:42:44;;;;;;;6.32;1.52;;;;;;;16.20;84.89;100166.25;2577037;55;20113;-77
2021/08/15 17:45:14;;;;;;;4.47;1.52;;;;;;;16.15;87.66;100179.37;2577937;55;20125;-81
2021/08/15 17:47:43;;;;;;;2.70;1.60;;;;;;;16.05;88.93;100190.25;2577933;55;20546;-77
2021/08/15 17:50:12;;;;;;;2.90;1.77;;;;;;;15.89;88.88;100200.97;2579240;55;20699;-78
2021/08/15 17:52:40;;;;;;;2.97;1.20;;;;;;;15.85;88.42;100211.19;2578065;55;20129;-75
2021/08/15 17:55:09;;;;;;;5.80;2.35;;;;;;;15.64;91.66;100216.97;2576327;55;20153;-78
2021/08/15 17:57:37;;;;;;;3.95;1.80;;;;;;;15.50;94.12;100199.59;2577341;55;20139;-75
2021/08/15 18:00:09;;;;;;;4.15;1.80;;;;;;;15.37;93.71;100208.09;2576578;55;20907;-76
2021/08/15 18:02:39;;;;;;;5.07;2.12;;;;;;;15.22;94.84;100208.69;2577256;55;20129;-74
2021/08/15 18:05:08;;;;;;;2.60;2.05;;;;;;;15.20;95.47;100204.47;2577614;55;20153;-75
2021/08/15 18:07:36;;;;;;;6.15;2.45;;;;;;;15.12;96.31;100192.66;2577281;55;20129;-75
2021/08/15 18:10:04;;;;;;;6.85;2.30;;;;;;;15.01;97.63;100198.31;2580190;55;20665;-78
2021/08/15 18:12:32;;;;;;;2.78;2.12;;;;;;;14.96;98.08;100201.47;2577448;55;20122;-75
2021/08/15 18:15:02;;;;;;;5.93;2.40;;;;;;;14.93;98.64;100195.56;2578486;55;20139;-78
2021/08/15 18:17:31;;;;;;;4.05;2.37;;;;;;;14.94;97.77;100208.84;2581973;55;20146;-75
2021/08/15 18:20:00;;;;;;;7.35;3.05;;;;;;;14.94;98.31;100213.37;2579889;55;20120;-75
2021/08/15 18:22:28;;;;;;;9.57;3.72;;;;;;;14.95;97.54;100207.84;2581979;55;20106;-77
2021/08/15 18:24:56;;;;;;;7.82;2.67;;;;;;;14.93;97.70;100211.66;2581916;55;20109;-76
2021/08/15 18:27:25;;;;;;;9.30;3.40;;;;;;;14.86;98.82;100223.06;2581728;55;20128;-75
2021/08/15 18:29:52;;;;;;;6.55;3.03;;;;;;;14.86;96.65;100219.50;2578641;55;20124;-76
2021/08/15 18:32:22;;;;;;;6.10;3.05;;;;;;;14.80;99.03;100229.03;2576596;55;20133;-76
2021/08/15 18:34:52;;;;;;;6.68;3.17;;;;;;;14.77;98.11;100224.00;2576946;55;20910;-76
2021/08/15 18:37:20;;;;;;;9.80;4.20;;;;;;;14.75;99.49;100226.00;2576434;55;20152;-76
2021/08/15 18:39:48;;;;;;;7.90;3.70;;;;;;;14.75;98.09;100218.75;2577363;55;20125;-76
2021/08/15 18:42:16;;;;;;;6.55;3.55;;;;;;;14.73;99.38;100222.59;2576711;55;20167;-76
2021/08/15 18:44:46;;;;;;;8.23;3.22;;;;;;;14.74;98.54;100229.69;2578044;55;20177;-75
2021/08/15 18:47:14;;;;;;;11.52;3.58;;;;;;;14.69;99.51;100230.09;2578404;55;20139;-76
2021/08/15 18:49:42;;;;;;;7.03;3.67;;;;;;;14.63;100.00;100238.78;2577070;55;20134;-75
2021/08/15 18:52:11;;;;;;;7.15;2.97;;;;;;;14.66;100.00;100238.44;2577890;55;20147;-76
2021/08/15 18:54:39;;;;;;;5.03;3.60;;;;;;;14.67;99.60;100244.69;2578017;55;20109;-76
2021/08/15 18:57:07;;;;;;;6.43;2.78;;;;;;;14.68;100.00;100243.69;2578628;55;20141;-75
2021/08/15 18:59:38;;;;;;;6.65;3.53;;;;;;;14.70;99.70;100252.41;2577780;55;20778;-76
2021/08/15 19:02:06;;;;;;;5.78;3.05;;;;;;;14.70;100.00;100249.72;2578993;55;20120;-76
2021/08/15 19:04:34;;;;;;;9.93;3.55;;;;;;;14.71;99.66;100254.94;2577487;55;20505;-75
2021/08/15 19:07:02;;;;;;;4.40;2.95;;;;;;;14.68;98.43;100247.22;2578518;55;20109;-78
2021/08/15 19:09:32;;;;;;;6.72;4.47;;;;;;;14.67;98.89;100242.81;2578490;55;20144;-77
2021/08/15 19:12:00;;;;;;;12.32;4.57;;;;;;;14.68;98.64;100241.00;2576385;55;20647;-75
2021/08/15 19:14:28;;;;;;;13.23;6.00;;;;;;;14.63;98.52;100243.28;2577678;55;20125;-75
2021/08/15 19:16:56;;;;;;;17.75;6.68;;;;;;;14.50;100.00;100244.50;2579960;55;20125;-76
2021/08/15 19:19:24;;;;;;;13.45;7.12;;;;;;;14.47;100.00;100239.47;2577849;55;20194;-75
2021/08/15 19:21:51;;;;;;;7.80;5.32;;;;;;;14.42;100.00;100236.38;2576188;55;20129;-75
2021/08/15 19:24:19;;;;;;;14.20;5.37;;;;;;;14.38;100.00;100232.31;2581024;55;20110;-75
2021/08/15 19:26:50;;;;;;;8.70;5.12;;;;;;;14.33;100.00;100236.31;2575915;55;20129;-74
2021/08/15 19:29:18;;;;;;;8.63;5.30;;;;;;;14.28;100.00;100229.69;2577467;55;20167;-75
2021/08/15 19:31:45;;;;;;;7.97;4.70;;;;;;;14.27;100.00;100236.06;2577078;55;20143;-75
2021/08/15 19:34:13;;;;;;;13.32;7.12;;;;;;;14.22;100.00;100225.78;2578506;55;20117;-75
2021/08/15 19:36:43;;;;;;;8.18;4.03;;;;;;;14.17;100.00;100217.34;2578882;55;20127;-76
2021/08/15 19:39:10;;;;;;;13.43;6.70;;;;;;;14.12;100.00;100230.34;2578181;55;20113;-75
2021/08/15 19:41:39;;;;;;;11.60;3.47;;;;;;;14.08;100.00;100237.03;2577882;55;20117;-75
2021/08/15 19:44:08;;;;;;;7.57;3.72;;;;;;;14.03;100.00;100234.81;2577471;55;20572;-75
2021/08/15 19:46:36;;;;;;;9.05;4.07;;;;;;;14.03;100.00;100238.34;2577010;55;20136;-75
2021/08/15 19:49:04;;;;;;;8.57;3.60;;;;;;;13.97;100.00;100240.75;2577240;55;20121;-76
2021/08/15 19:51:32;;;;;;;12.98;5.82;;;;;;;13.91;100.00;100234.16;2577197;55;20640;-75
2021/08/15 19:54:00;;;;;;;12.43;3.90;;;;;;;13.91;100.00;100239.50;2577471;55;20129;-76
2021/08/15 19:56:28;;;;;;;9.07;3.60;;;;;;;13.94;100.00;100238.38;2577514;55;20113;-76
2021/08/15 19:58:56;;;;;;;11.32;3.60;;;;;;;13.91;100.00;100236.81;2578267;55;20125;-75
2021/08/15 20:01:25;;;;;;;6.37;3.30;;;;;;;13.93;100.00;100234.88;2577817;55;20123;-75
2021/08/15 20:03:53;;;;;;;10.57;4.30;;;;;;;13.95;100.00;100227.50;2578107;55;20688;-75
2021/08/15 20:06:20;;;;;;;8.80;3.75;;;;;;;13.94;100.00;100233.87;2577661;55;20125;-75
2021/08/15 20:08:48;;;;;;;13.02;5.72;;;;;;;13.93;100.00;100231.31;2576500;55;20125;-75
2021/08/15 20:11:17;;;;;;;4.05;2.67;;;;;;;13.93;100.00;100236.69;2577484;55;20136;-76
2021/08/15 20:13:46;;;;;;;8.00;2.90;;;;;;;13.86;100.00;100242.62;2577455;55;20126;-76
2021/08/15 20:16:14;;;;;;;6.25;2.83;;;;;;;13.82;100.00;100229.69;2576677;55;20121;-76
2021/08/15 20:18:43;;;;;;;7.62;3.35;;;;;;;13.83;100.00;100236.72;2577604;55;20137;-76
2021/08/15 20:21:11;;;;;;;7.50;3.25;;;;;;;13.78;100.00;100229.97;2577269;55;20121;-75
2021/08/15 20:23:38;;;;;;;6.65;3.10;;;;;;;13.76;100.00;100236.47;2579616;55;20117;-76
2021/08/15 20:26:07;;;;;;;6.37;2.90;;;;;;;13.73;100.00;100240.31;2577873;55;20139;-76
2021/08/15 20:28:35;;;;;;;10.65;3.15;;;;;;;13.76;100.00;100220.37;2577251;55;20498;-77
2021/08/15 20:31:03;;;;;;;5.90;2.80;;;;;;;13.70;100.00;100232.56;2577233;55;20638;-75
2021/08/15 20:33:32;;;;;;;8.77;3.75;;;;;;;13.71;100.00;100230.72;2578746;55;20129;-75
2021/08/15 20:36:03;;;;;;;8.90;3.90;;;;;;;13.68;100.00;100239.03;2578690;55;20132;-75
2021/08/15 20:38:31;;;;;;;7.57;2.72;;;;;;;13.68;100.00;100222.97;2577396;55;20113;-77
2021/08/15 20:41:00;;;;;;;5.85;2.92;;;;;;;13.67;100.00;100227.50;2576321;55;20121;-77
2021/08/15 20:43:28;;;;;;;5.37;2.55;;;;;;;13.69;100.00;100227.37;2577683;55;20117;-77
2021/08/15 20:45:56;;;;;;;7.12;2.42;;;;;;;13.67;100.00;100224.81;2576517;55;20138;-77
2021/08/15 20:48:24;;;;;;;5.90;2.33;;;;;;;13.66;100.00;100220.44;2576807;55;20632;-78
2021/08/15 20:50:52;;;;;;;6.87;2.80;;;;;;;13.63;100.00;100234.16;2576578;55;20143;-78
2021/08/15 20:53:22;;;;;;;8.52;2.45;;;;;;;13.66;100.00;100233.84;2579380;55;20487;-79
2021/08/15 20:55:49;;;;;;;4.03;1.98;;;;;;;13.62;100.00;100227.09;2577117;55;20622;-76
2021/08/15 20:58:17;;;;;;;3.87;2.15;;;;;;;13.59;100.00;100240.78;2580107;55;20175;-76
2021/08/15 21:00:45;;;;;;;5.47;2.58;;;;;;;13.55;100.00;100228.69;2574745;55;20118;-68
2021/08/15 21:03:14;;;;;;;7.80;2.30;;;;;;;13.51;100.00;100228.13;2579763;55;20134;-76